Time;durP1;ratioP1;P1;durP2;ratioP2;P2;SDS_P1;SDS_P2;PMS_P1;PMS_P2;Temp;Humidity;BMP_temperature;BMP_pressure;BME280_temperature;BME280_humidity;BME280_pressure;Samples;Min_cycle;Max_cycle;Signal;HPM_P1;HPM_P2
2022/01/07 00:00:18;;;;;;;0.70;0.70;;;;;;;0.37;67.74;101377.22;685145;28;44389;-67
2022/01/07 00:00:39;;;;;;;0.60;0.60;;;;;;;0.38;67.85;101382.44;680928;28;92224;-67
2022/01/07 00:01:07;;;;;;;0.60;0.60;;;;;;;0.39;67.89;101377.97;678714;28;159331;-67
2022/01/07 00:01:28;;;;;;;0.60;0.60;;;;;;;0.37;67.93;101386.03;681770;28;67550;-67
2022/01/07 00:01:49;;;;;;;0.50;0.50;;;;;;;0.35;67.92;101387.94;684856;28;22642;-67
2022/01/07 00:02:10;;;;;;;0.50;0.50;;;;;;;0.35;67.98;101385.28;685745;28;21552;-67
2022/01/07 00:02:32;;;;;;;0.60;0.60;;;;;;;0.37;68.12;101382.53;686952;28;22406;-67
2022/01/07 00:02:56;;;;;;;0.60;0.60;;;;;;;0.35;68.09;101391.44;687349;28;45272;-67
2022/01/07 00:03:18;;;;;;;0.60;0.60;;;;;;;0.36;68.06;101386.97;686990;28;69278;-67
2022/01/07 00:03:39;;;;;;;0.60;0.60;;;;;;;0.37;67.97;101385.19;683725;28;68918;-67
2022/01/07 00:04:01;;;;;;;0.50;0.50;;;;;;;0.36;68.19;101381.66;683334;28;21525;-67
2022/01/07 00:04:22;;;;;;;0.50;0.50;;;;;;;0.35;68.20;101378.16;682127;28;45277;-67
2022/01/07 00:04:44;;;;;;;0.50;0.50;;;;;;;0.34;68.04;101383.56;686444;28;1733;-67
2022/01/07 00:05:05;;;;;;;0.50;0.50;;;;;;;0.32;68.11;101378.34;685725;28;21535;-67
2022/01/07 00:05:28;;;;;;;0.70;0.70;;;;;;;0.31;68.05;101381.97;685569;28;44389;-67
2022/01/07 00:05:49;;;;;;;0.70;0.70;;;;;;;0.30;68.13;101382.91;687587;28;44393;-67
2022/01/07 00:06:12;;;;;;;0.70;0.70;;;;;;;0.28;68.02;101384.81;685059;28;45213;-67
2022/01/07 00:06:34;;;;;;;0.60;0.60;;;;;;;0.27;68.41;101374.28;684588;28;44409;-67
2022/01/07 00:06:55;;;;;;;0.60;0.60;;;;;;;0.24;68.20;101372.66;681720;28;45518;-67
2022/01/07 00:07:16;;;;;;;0.60;0.60;;;;;;;0.22;68.21;101369.25;683338;28;23509;-67
2022/01/07 00:07:38;;;;;;;0.60;0.60;;;;;;;0.18;68.14;101373.88;683606;28;22381;-67
2022/01/07 00:07:59;;;;;;;0.50;0.50;;;;;;;0.20;68.32;101375.59;682986;28;44416;-67
2022/01/07 00:08:20;;;;;;;0.65;0.65;;;;;;;0.18;68.37;101373.88;685470;28;22060;-67
2022/01/07 00:08:42;;;;;;;0.80;0.80;;;;;;;0.14;68.44;101360.88;685415;28;44405;-67
2022/01/07 00:09:04;;;;;;;0.70;0.70;;;;;;;0.16;68.57;101366.97;685720;28;22155;-67
2022/01/07 00:09:25;;;;;;;0.70;0.70;;;;;;;0.16;68.56;101362.50;686517;28;1759;-67
2022/01/07 00:09:46;;;;;;;0.68;0.68;;;;;;;0.17;68.67;101373.97;685407;28;45050;-67
2022/01/07 00:10:09;;;;;;;0.60;0.60;;;;;;;0.15;68.66;101370.56;685962;28;22421;-67
2022/01/07 00:10:31;;;;;;;0.50;0.50;;;;;;;0.17;68.60;101377.50;685554;28;46484;-67
2022/01/07 00:10:52;;;;;;;0.50;0.50;;;;;;;0.18;68.62;101376.53;685366;28;45260;-67
2022/01/07 00:11:13;;;;;;;0.50;0.50;;;;;;;0.17;68.68;101366.00;684637;28;22455;-67
2022/01/07 00:11:34;;;;;;;0.70;0.70;;;;;;;0.18;68.82;101373.03;686067;28;22493;-67
2022/01/07 00:11:56;;;;;;;0.70;0.70;;;;;;;0.18;68.68;101370.38;684868;28;22238;-67
2022/01/07 00:12:21;;;;;;;0.60;0.60;;;;;;;0.17;68.70;101373.97;684811;28;46316;-67
2022/01/07 00:12:42;;;;;;;0.50;0.50;;;;;;;0.19;68.68;101374.75;682140;28;138227;-67
2022/01/07 00:13:04;;;;;;;0.50;0.50;;;;;;;0.21;68.79;101375.50;685504;28;23726;-67
2022/01/07 00:13:26;;;;;;;0.50;0.50;;;;;;;0.22;68.78;101371.91;685305;28;45288;-67
2022/01/07 00:13:47;;;;;;;0.50;0.50;;;;;;;0.23;68.74;101372.75;686134;28;23423;-67
2022/01/07 00:14:11;;;;;;;0.60;0.60;;;;;;;0.25;68.79;101378.81;685927;28;23463;-67
2022/01/07 00:14:32;;;;;;;0.70;0.70;;;;;;;0.25;68.37;101370.84;683115;28;90803;-67
2022/01/07 00:14:53;;;;;;;0.70;0.70;;;;;;;0.26;68.67;101372.56;686093;28;22413;-67
2022/01/07 00:15:15;;;;;;;0.70;0.70;;;;;;;0.25;68.62;101366.41;683777;28;1013;-67
2022/01/07 00:15:38;;;;;;;0.60;0.60;;;;;;;0.28;68.59;101370.66;684285;28;70155;-67
2022/01/07 00:15:59;;;;;;;0.60;0.60;;;;;;;0.28;68.51;101374.19;684707;28;45295;-67
2022/01/07 00:16:20;;;;;;;0.60;0.60;;;;;;;0.28;68.53;101370.66;685710;28;21503;-67
2022/01/07 00:16:41;;;;;;;0.50;0.50;;;;;;;0.29;68.50;101369.72;684492;28;46412;-67
2022/01/07 00:17:03;;;;;;;0.57;0.57;;;;;;;0.28;68.53;101370.66;686611;28;23536;-67
2022/01/07 00:17:25;;;;;;;0.70;0.70;;;;;;;0.31;68.43;101370.47;687506;28;46303;-67
2022/01/07 00:17:47;;;;;;;0.70;0.70;;;;;;;0.31;68.37;101368.69;686157;28;21533;-67
2022/01/07 00:18:08;;;;;;;0.70;0.70;;;;;;;0.31;68.35;101363.38;684656;28;45277;-67
2022/01/07 00:18:30;;;;;;;0.70;0.70;;;;;;;0.33;68.45;101369.44;686089;28;23474;-67
2022/01/07 00:18:51;;;;;;;0.60;0.60;;;;;;;0.33;68.48;101371.25;684595;28;66900;-67
2022/01/07 00:19:12;;;;;;;0.60;0.60;;;;;;;0.32;68.32;101375.69;685503;28;22250;-67
2022/01/07 00:19:34;;;;;;;0.50;0.50;;;;;;;0.32;68.39;101372.19;686215;28;23651;-67
2022/01/07 00:19:56;;;;;;;0.50;0.50;;;;;;;0.31;68.36;101373.13;685055;28;44404;-67
2022/01/07 00:20:17;;;;;;;0.60;0.60;;;;;;;0.31;68.37;101374.00;685726;28;21484;-67
2022/01/07 00:20:39;;;;;;;0.70;0.70;;;;;;;0.32;68.34;101375.69;685391;28;46293;-67
2022/01/07 00:21:01;;;;;;;0.68;0.68;;;;;;;0.31;68.31;101373.13;684833;28;47380;-67
2022/01/07 00:21:24;;;;;;;0.60;0.60;;;;;;;0.28;68.20;101365.34;684247;28;44560;-67
2022/01/07 00:21:45;;;;;;;0.60;0.60;;;;;;;0.30;68.24;101377.59;684687;28;46464;-67
2022/01/07 00:22:06;;;;;;;0.60;0.60;;;;;;;0.31;68.32;101374.00;686154;28;22341;-67
2022/01/07 00:22:28;;;;;;;0.60;0.60;;;;;;;0.31;68.28;101375.78;688129;28;45029;-67
2022/01/07 00:22:49;;;;;;;0.50;0.50;;;;;;;0.28;68.35;101373.31;688160;28;18750;-67
2022/01/07 00:23:10;;;;;;;0.50;0.50;;;;;;;0.27;68.23;101368.97;688371;28;22428;-67
2022/01/07 00:23:31;;;;;;;0.50;0.50;;;;;;;0.30;68.29;101374.09;688560;28;22410;-67
2022/01/07 00:23:54;;;;;;;0.50;0.50;;;;;;;0.29;68.29;101367.91;688632;28;22359;-67
2022/01/07 00:24:15;;;;;;;0.60;0.60;;;;;;;0.29;68.24;101372.38;686894;28;46395;-67
2022/01/07 00:24:36;;;;;;;0.70;0.70;;;;;;;0.30;68.20;101374.94;685948;28;14970;-67
2022/01/07 00:24:57;;;;;;;0.60;0.60;;;;;;;0.28;68.28;101368.88;686051;28;23498;-67
2022/01/07 00:25:20;;;;;;;0.60;0.60;;;;;;;0.29;68.19;101381.19;685539;28;23740;-67
2022/01/07 00:25:42;;;;;;;0.55;0.55;;;;;;;0.27;68.28;101367.16;683810;28;92325;-67
2022/01/07 00:26:03;;;;;;;0.50;0.50;;;;;;;0.27;68.25;101369.81;685349;28;22473;-67
2022/01/07 00:26:24;;;;;;;0.50;0.50;;;;;;;0.26;68.00;101372.56;685830;28;23265;-67
2022/01/07 00:26:46;;;;;;;0.50;0.50;;;;;;;0.25;68.26;101369.06;682313;28;22051;-67
2022/01/07 00:27:07;;;;;;;0.50;0.50;;;;;;;0.27;68.39;101371.63;682061;28;44404;-67
2022/01/07 00:27:28;;;;;;;0.70;0.70;;;;;;;0.26;68.48;101367.25;680638;28;22397;-67
2022/01/07 00:27:50;;;;;;;0.60;0.60;;;;;;;0.27;68.28;101374.28;679236;28;45290;-67
2022/01/07 00:28:11;;;;;;;0.60;0.60;;;;;;;0.28;68.35;101368.88;677830;29;46357;-67
2022/01/07 00:28:32;;;;;;;0.60;0.60;;;;;;;0.28;68.40;101368.88;679661;29;23459;-67
2022/01/07 00:28:53;;;;;;;0.60;0.60;;;;;;;0.28;68.35;101368.88;680849;28;21099;-67
2022/01/07 00:29:15;;;;;;;0.50;0.50;;;;;;;0.28;68.37;101374.19;680370;28;22242;-67
2022/01/07 00:29:36;;;;;;;0.50;0.50;;;;;;;0.27;68.35;101371.63;682860;28;44352;-67
2022/01/07 00:29:57;;;;;;;0.50;0.50;;;;;;;0.27;68.38;101372.47;683878;28;22423;-67
2022/01/07 00:30:20;;;;;;;0.60;0.60;;;;;;;0.26;68.35;101370.75;685867;28;23476;-67
2022/01/07 00:30:43;;;;;;;0.70;0.70;;;;;;;0.24;68.12;101372.66;684826;28;67535;-67
2022/01/07 00:31:04;;;;;;;0.60;0.60;;;;;;;0.27;68.48;101367.16;686353;28;1446;-67
2022/01/07 00:31:25;;;;;;;0.60;0.60;;;;;;;0.28;68.37;101368.00;686293;28;22372;-67
2022/01/07 00:31:46;;;;;;;0.60;0.60;;;;;;;0.27;68.34;101369.81;684439;28;46311;-67
2022/01/07 00:32:08;;;;;;;0.50;0.50;;;;;;;0.28;68.45;101373.31;685236;28;44422;-67
2022/01/07 00:32:29;;;;;;;0.50;0.50;;;;;;;0.28;68.58;101370.66;685477;28;46351;-67
2022/01/07 00:32:52;;;;;;;0.50;0.50;;;;;;;0.28;68.42;101368.00;685699;28;21556;-67
2022/01/07 00:33:13;;;;;;;0.63;0.63;;;;;;;0.29;68.56;101367.06;685212;28;46384;-67
2022/01/07 00:33:35;;;;;;;0.70;0.70;;;;;;;0.29;68.54;101375.88;686302;28;21514;-67
2022/01/07 00:33:56;;;;;;;0.60;0.60;;;;;;;0.28;68.47;101368.00;685338;28;44428;-67
2022/01/07 00:34:17;;;;;;;0.60;0.60;;;;;;;0.27;68.60;101372.47;685760;28;22246;-67
2022/01/07 00:34:38;;;;;;;0.60;0.60;;;;;;;0.28;68.51;101368.88;685880;28;21541;-67
2022/01/07 00:34:59;;;;;;;0.50;0.50;;;;;;;0.28;68.37;101366.22;686225;28;23466;-67
2022/01/07 00:35:21;;;;;;;0.50;0.50;;;;;;;0.29;68.40;101367.06;685857;28;22387;-67
2022/01/07 00:35:43;;;;;;;0.50;0.50;;;;;;;0.28;68.37;101368.88;684819;28;68325;-67
2022/01/07 00:36:04;;;;;;;0.60;0.60;;;;;;;0.29;68.33;101367.91;685769;28;15497;-67
2022/01/07 00:36:27;;;;;;;0.70;0.70;;;;;;;0.29;68.47;101364.41;684797;28;46349;-67
2022/01/07 00:36:49;;;;;;;0.70;0.70;;;;;;;0.28;68.37;101363.56;684251;28;46286;-67
2022/01/07 00:37:11;;;;;;;0.60;0.60;;;;;;;0.27;68.41;101366.31;684877;28;45090;-67
2022/01/07 00:37:33;;;;;;;0.60;0.60;;;;;;;0.28;68.33;101366.22;684577;28;67370;-67
2022/01/07 00:37:54;;;;;;;0.50;0.50;;;;;;;0.28;68.46;101376.84;685697;28;21553;-67
2022/01/07 00:38:16;;;;;;;0.50;0.50;;;;;;;0.27;68.44;101372.47;684163;28;46327;-67
2022/01/07 00:38:37;;;;;;;0.50;0.50;;;;;;;0.27;68.30;101368.97;682516;28;44412;-67
2022/01/07 00:38:58;;;;;;;0.50;0.50;;;;;;;0.27;68.33;101372.47;683874;28;22404;-67
2022/01/07 00:39:20;;;;;;;0.70;0.70;;;;;;;0.28;68.39;101378.63;685569;28;23484;-67
2022/01/07 00:39:41;;;;;;;0.70;0.70;;;;;;;0.28;68.31;101375.97;686366;28;22492;-67
2022/01/07 00:40:04;;;;;;;0.70;0.70;;;;;;;0.27;68.45;101372.47;685974;28;23510;-67
2022/01/07 00:40:26;;;;;;;0.60;0.60;;;;;;;0.29;68.42;101375.03;683833;28;90634;-67
2022/01/07 00:40:47;;;;;;;0.60;0.60;;;;;;;0.28;68.37;101376.84;685150;28;45402;-67
2022/01/07 00:41:09;;;;;;;0.50;0.50;;;;;;;0.28;68.48;101371.53;685498;28;23493;-67
2022/01/07 00:41:31;;;;;;;0.50;0.50;;;;;;;0.28;68.48;101371.53;685702;28;44282;-67
2022/01/07 00:41:52;;;;;;;0.50;0.50;;;;;;;0.25;68.56;101369.06;685934;28;22391;-67
2022/01/07 00:42:13;;;;;;;0.60;0.60;;;;;;;0.28;68.43;101375.97;686171;28;23397;-67
2022/01/07 00:42:35;;;;;;;0.70;0.70;;;;;;;0.27;68.44;101361.84;685719;28;46396;-67
2022/01/07 00:42:56;;;;;;;0.60;0.60;;;;;;;0.23;68.41;101365.63;685434;28;45092;-67
2022/01/07 00:43:17;;;;;;;0.60;0.60;;;;;;;0.30;68.47;101374.94;685779;28;23429;-67
2022/01/07 00:43:39;;;;;;;0.60;0.60;;;;;;;0.29;68.37;101367.91;686329;28;22377;-67
2022/01/07 00:44:00;;;;;;;0.50;0.50;;;;;;;0.30;68.41;101380.25;685414;28;46334;-67
2022/01/07 00:44:21;;;;;;;0.60;0.60;;;;;;;0.28;68.30;101379.50;685615;28;22298;-67
2022/01/07 00:44:43;;;;;;;0.60;0.60;;;;;;;0.28;68.52;101373.31;687095;28;1313;-67
2022/01/07 00:45:05;;;;;;;0.60;0.60;;;;;;;0.27;68.50;101377.78;686465;28;23494;-67
2022/01/07 00:45:27;;;;;;;0.63;0.63;;;;;;;0.25;68.29;101371.72;684569;28;67547;-67
2022/01/07 00:45:49;;;;;;;0.60;0.60;;;;;;;0.24;68.48;101370.00;683160;28;22409;-67
2022/01/07 00:46:11;;;;;;;0.60;0.60;;;;;;;0.27;68.50;101371.63;680616;28;67411;-67
2022/01/07 00:46:33;;;;;;;0.60;0.60;;;;;;;0.26;68.45;101370.75;682620;28;46423;-68
2022/01/07 00:46:54;;;;;;;0.60;0.60;;;;;;;0.25;68.49;101374.38;682577;28;21530;-67
2022/01/07 00:47:16;;;;;;;0.50;0.50;;;;;;;0.25;68.42;101365.53;682210;28;22405;-67
2022/01/07 00:47:38;;;;;;;0.50;0.50;;;;;;;0.25;68.54;101373.50;683516;28;24936;-68
2022/01/07 00:48:00;;;;;;;0.40;0.40;;;;;;;0.25;68.43;101368.19;685788;28;22392;-69
2022/01/07 00:48:21;;;;;;;0.60;0.60;;;;;;;0.26;68.61;101378.72;684776;28;45229;-68
2022/01/07 00:48:42;;;;;;;0.70;0.70;;;;;;;0.26;68.59;101375.22;685442;28;46662;-67
2022/01/07 00:49:03;;;;;;;0.60;0.60;;;;;;;0.26;68.60;101373.41;685993;28;21630;-68
2022/01/07 00:49:25;;;;;;;0.60;0.60;;;;;;;0.26;68.72;101375.22;685315;28;22394;-68
2022/01/07 00:49:46;;;;;;;0.60;0.60;;;;;;;0.26;68.69;101372.56;686520;28;1037;-66
2022/01/07 00:50:08;;;;;;;0.50;0.50;;;;;;;0.27;68.62;101371.63;686101;28;23341;-67
2022/01/07 00:50:30;;;;;;;0.50;0.50;;;;;;;0.26;68.68;101373.41;685618;28;44275;-67
2022/01/07 00:50:52;;;;;;;0.50;0.50;;;;;;;0.27;68.71;101371.63;685563;28;46309;-68
2022/01/07 00:51:13;;;;;;;0.63;0.63;;;;;;;0.24;68.50;101375.31;684434;28;46309;-68
2022/01/07 00:51:36;;;;;;;0.70;0.70;;;;;;;0.24;68.54;101375.31;686204;28;22398;-68
2022/01/07 00:51:59;;;;;;;0.60;0.60;;;;;;;0.24;68.68;101369.16;684074;28;66553;-67
2022/01/07 00:52:21;;;;;;;0.60;0.60;;;;;;;0.23;68.64;101364.78;684295;28;69423;-67
2022/01/07 00:52:42;;;;;;;0.50;0.50;;;;;;;0.22;68.40;101369.25;684894;28;45256;-67
2022/01/07 00:53:03;;;;;;;0.52;0.52;;;;;;;0.23;68.66;101368.28;686262;28;22407;-67
2022/01/07 00:53:24;;;;;;;0.60;0.60;;;;;;;0.24;68.62;101377.13;686022;28;23246;-67
2022/01/07 00:53:46;;;;;;;0.50;0.50;;;;;;;0.23;68.66;101375.41;685356;28;23493;-66
2022/01/07 00:54:07;;;;;;;0.60;0.60;;;;;;;0.23;68.54;101372.75;683884;28;46306;-67
2022/01/07 00:54:29;;;;;;;0.60;0.60;;;;;;;0.24;68.67;101366.50;686076;28;20717;-67
2022/01/07 00:54:50;;;;;;;0.60;0.60;;;;;;;0.24;68.67;101375.31;685054;28;46337;-67
2022/01/07 00:55:13;;;;;;;0.60;0.60;;;;;;;0.23;68.75;101373.59;685783;28;22433;-67
2022/01/07 00:55:43;;;;;;;0.50;0.50;;;;;;;0.21;68.81;101369.34;685166;28;60218;-67
2022/01/07 00:56:04;;;;;;;0.50;0.50;;;;;;;0.22;68.77;101371.91;685737;28;22404;-67
2022/01/07 00:56:26;;;;;;;0.50;0.50;;;;;;;0.23;68.80;101370.09;685312;28;46007;-69
2022/01/07 00:56:47;;;;;;;0.60;0.60;;;;;;;0.22;68.75;101366.59;684171;28;45121;-67
2022/01/07 00:57:08;;;;;;;0.70;0.70;;;;;;;0.21;68.74;101370.19;685595;28;23359;-68
2022/01/07 00:57:29;;;;;;;0.70;0.70;;;;;;;0.22;68.83;101369.25;685951;28;22475;-69
2022/01/07 00:57:51;;;;;;;0.60;0.60;;;;;;;0.25;68.79;101365.53;685118;28;22381;-68
2022/01/07 00:58:12;;;;;;;0.60;0.60;;;;;;;0.24;68.76;101363.84;684360;28;46340;-66
2022/01/07 00:58:33;;;;;;;0.60;0.60;;;;;;;0.23;68.64;101376.25;685879;28;22534;-67
2022/01/07 00:58:57;;;;;;;0.50;0.50;;;;;;;0.19;68.71;101361.47;683310;28;92196;-67
2022/01/07 00:59:19;;;;;;;0.50;0.50;;;;;;;0.24;68.62;101374.47;685344;28;23440;-67
2022/01/07 00:59:42;;;;;;;0.60;0.60;;;;;;;0.23;68.72;101368.28;685824;28;42786;-67
2022/01/07 01:00:05;;;;;;;0.70;0.70;;;;;;;0.23;68.72;101367.44;684783;28;43669;-67
2022/01/07 01:00:27;;;;;;;0.60;0.60;;;;;;;0.24;68.73;101367.34;684444;28;69447;-67
2022/01/07 01:00:48;;;;;;;0.60;0.60;;;;;;;0.23;68.75;101367.44;684211;28;69450;-66
2022/01/07 01:01:09;;;;;;;0.60;0.60;;;;;;;0.24;68.58;101367.34;685261;28;3202;-69
2022/01/07 01:01:30;;;;;;;0.60;0.60;;;;;;;0.24;68.74;101359.38;686076;28;22237;-67
2022/01/07 01:01:52;;;;;;;0.50;0.50;;;;;;;0.24;68.60;101366.50;685078;28;21608;-68
2022/01/07 01:02:14;;;;;;;0.50;0.50;;;;;;;0.25;68.71;101365.53;685709;28;21543;-68
2022/01/07 01:02:35;;;;;;;0.60;0.60;;;;;;;0.27;68.73;101364.50;684625;28;69447;-69
2022/01/07 01:02:57;;;;;;;0.70;0.70;;;;;;;0.29;68.71;101365.25;686298;28;23356;-67
2022/01/07 01:03:19;;;;;;;0.70;0.70;;;;;;;0.28;68.71;101366.22;684842;28;44392;-66
2022/01/07 01:03:40;;;;;;;0.60;0.60;;;;;;;0.29;68.75;101364.41;685850;28;46926;-67
2022/01/07 01:04:02;;;;;;;0.60;0.60;;;;;;;0.30;68.79;101361.66;683157;28;20381;-67
2022/01/07 01:04:23;;;;;;;0.60;0.60;;;;;;;0.31;68.80;101362.50;682647;28;21648;-67
2022/01/07 01:04:45;;;;;;;0.60;0.60;;;;;;;0.30;68.79;101371.44;683239;28;21517;-67
2022/01/07 01:05:09;;;;;;;0.50;0.50;;;;;;;0.29;68.77;101361.75;682505;28;44401;-67
2022/01/07 01:05:32;;;;;;;0.60;0.60;;;;;;;0.30;68.79;101364.31;680013;28;115418;-67
2022/01/07 01:05:53;;;;;;;0.70;0.70;;;;;;;0.31;68.67;101362.50;683204;28;67634;-67
2022/01/07 01:06:14;;;;;;;0.70;0.70;;;;;;;0.29;68.82;101359.94;685422;28;22101;-67
2022/01/07 01:06:40;;;;;;;0.60;0.60;;;;;;;0.29;68.75;101362.59;685513;28;23486;-67
2022/01/07 01:07:02;;;;;;;0.60;0.60;;;;;;;0.28;68.77;101357.38;682462;28;139219;-67
2022/01/07 01:07:23;;;;;;;0.60;0.60;;;;;;;0.30;68.85;101369.63;686187;28;23603;-67
2022/01/07 01:07:45;;;;;;;0.50;0.50;;;;;;;0.25;68.74;101355.78;685490;28;22425;-68
2022/01/07 01:08:07;;;;;;;0.50;0.50;;;;;;;0.26;68.68;101362.78;682425;28;45163;-68
2022/01/07 01:08:28;;;;;;;0.60;0.60;;;;;;;0.28;68.80;101365.34;682713;28;46348;-67
2022/01/07 01:08:49;;;;;;;0.70;0.70;;;;;;;0.28;68.58;101365.34;682008;28;45424;-67
2022/01/07 01:09:10;;;;;;;0.70;0.70;;;;;;;0.26;68.68;101361.94;682651;28;21494;-67
2022/01/07 01:09:32;;;;;;;0.60;0.60;;;;;;;0.28;68.77;101368.88;683204;28;22417;-67
2022/01/07 01:09:53;;;;;;;0.60;0.60;;;;;;;0.25;68.64;101361.09;679969;28;47833;-67
2022/01/07 01:10:17;;;;;;;0.60;0.60;;;;;;;0.25;68.88;101362.88;682713;28;23577;-67
2022/01/07 01:10:39;;;;;;;0.55;0.55;;;;;;;0.25;68.53;101366.41;681292;28;90821;-68
2022/01/07 01:11:00;;;;;;;0.55;0.55;;;;;;;0.26;68.82;101368.09;682272;28;46458;-67
2022/01/07 01:11:21;;;;;;;0.50;0.50;;;;;;;0.26;68.83;101368.09;682063;28;44267;-68
2022/01/07 01:11:42;;;;;;;0.70;0.70;;;;;;;0.24;68.83;101358.53;683527;28;23475;-67
2022/01/07 01:12:05;;;;;;;0.70;0.70;;;;;;;0.29;68.85;101356.44;686523;28;10623;-67
2022/01/07 01:12:27;;;;;;;0.63;0.63;;;;;;;0.30;68.86;101355.50;685214;28;45350;-69
2022/01/07 01:12:48;;;;;;;0.60;0.60;;;;;;;0.28;68.94;101358.25;684335;28;47148;-68
2022/01/07 01:13:10;;;;;;;0.57;0.57;;;;;;;0.32;68.91;101358.91;685233;28;45366;-67
2022/01/07 01:13:31;;;;;;;0.50;0.50;;;;;;;0.32;68.93;101357.09;686293;28;21484;-67
2022/01/07 01:13:53;;;;;;;0.50;0.50;;;;;;;0.32;68.85;101357.09;685714;28;46271;-68
2022/01/07 01:14:14;;;;;;;0.50;0.50;;;;;;;0.33;68.82;101358.81;684778;28;45384;-67
2022/01/07 01:14:36;;;;;;;0.60;0.60;;;;;;;0.34;68.77;101351.69;686391;28;23165;-66
2022/01/07 01:14:57;;;;;;;0.70;0.70;;;;;;;0.36;68.91;101357.75;686251;28;22422;-67
2022/01/07 01:15:22;;;;;;;0.70;0.70;;;;;;;0.39;68.79;101354.06;685940;28;23724;-67
2022/01/07 01:15:43;;;;;;;0.60;0.60;;;;;;;0.39;68.84;101357.56;683248;28;114522;-67
2022/01/07 01:16:04;;;;;;;0.60;0.60;;;;;;;0.41;68.80;101357.47;685044;28;45063;-68
2022/01/07 01:16:25;;;;;;;0.60;0.60;;;;;;;0.39;68.71;101357.56;686786;28;1573;-68
2022/01/07 01:16:47;;;;;;;0.60;0.60;;;;;;;0.40;68.76;101348.63;685171;28;23515;-67
2022/01/07 01:17:09;;;;;;;0.50;0.50;;;;;;;0.41;68.71;101341.50;685338;28;46298;-67
2022/01/07 01:17:30;;;;;;;0.50;0.50;;;;;;;0.42;68.60;101353.84;688547;28;21930;-67
2022/01/07 01:17:53;;;;;;;0.68;0.68;;;;;;;0.41;68.43;101352.16;688374;28;18691;-67
2022/01/07 01:18:14;;;;;;;0.60;0.60;;;;;;;0.39;68.52;101352.22;685960;28;90480;-67
2022/01/07 01:18:35;;;;;;;0.60;0.60;;;;;;;0.40;68.43;101361.94;688646;28;22499;-66
2022/01/07 01:18:56;;;;;;;0.60;0.60;;;;;;;0.40;68.54;101350.44;688485;28;22062;-68
2022/01/07 01:19:18;;;;;;;0.50;0.50;;;;;;;0.40;68.55;101361.09;687183;28;21525;-66
2022/01/07 01:19:39;;;;;;;0.50;0.50;;;;;;;0.42;68.38;101359.19;685148;28;47689;-67
2022/01/07 01:20:00;;;;;;;0.50;0.50;;;;;;;0.42;68.53;101348.53;686421;28;22565;-67
2022/01/07 01:20:22;;;;;;;0.50;0.50;;;;;;;0.42;68.56;101351.19;685792;28;22403;-67
2022/01/07 01:20:44;;;;;;;0.70;0.70;;;;;;;0.42;68.59;101362.69;686571;28;22375;-68
2022/01/07 01:21:05;;;;;;;0.70;0.70;;;;;;;0.43;68.54;101353.75;684470;28;67508;-67
2022/01/07 01:21:26;;;;;;;0.63;0.63;;;;;;;0.42;68.45;101349.38;686574;28;22269;-67
2022/01/07 01:21:49;;;;;;;0.70;0.70;;;;;;;0.45;68.56;101353.66;685056;28;22405;-67
2022/01/07 01:22:11;;;;;;;0.68;0.68;;;;;;;0.45;68.60;101357.16;685126;28;44412;-67
2022/01/07 01:22:32;;;;;;;0.55;0.55;;;;;;;0.47;68.52;101351.75;686737;28;15809;-66
2022/01/07 01:22:53;;;;;;;0.50;0.50;;;;;;;0.48;68.58;101345.50;685118;28;46502;-67
2022/01/07 01:23:15;;;;;;;0.40;0.40;;;;;;;0.48;68.55;101354.31;685688;28;23350;-66
2022/01/07 01:23:36;;;;;;;0.60;0.60;;;;;;;0.48;68.56;101354.31;685591;28;46353;-67
2022/01/07 01:23:57;;;;;;;0.70;0.70;;;;;;;0.48;68.50;101358.78;686449;28;22402;-67
2022/01/07 01:24:18;;;;;;;0.70;0.70;;;;;;;0.47;68.47;101352.63;685336;28;23295;-66
2022/01/07 01:24:40;;;;;;;0.60;0.60;;;;;;;0.46;68.40;101358.88;685889;28;21049;-67
2022/01/07 01:25:03;;;;;;;0.68;0.68;;;;;;;0.46;68.33;101350.06;685201;28;46351;-67
2022/01/07 01:25:24;;;;;;;0.60;0.60;;;;;;;0.44;68.31;101360.78;684718;28;45271;-66
2022/01/07 01:25:45;;;;;;;0.60;0.60;;;;;;;0.42;68.36;101346.72;685925;28;23497;-66
2022/01/07 01:26:07;;;;;;;0.60;0.60;;;;;;;0.45;68.36;101358.97;682970;28;45850;-67
2022/01/07 01:26:28;;;;;;;0.55;0.55;;;;;;;0.44;68.26;101354.59;682893;28;44210;-67
2022/01/07 01:26:49;;;;;;;0.70;0.70;;;;;;;0.42;68.08;101349.38;682157;28;23421;-68
2022/01/07 01:27:10;;;;;;;0.70;0.70;;;;;;;0.41;68.33;101344.16;683068;28;23486;-69
2022/01/07 01:27:33;;;;;;;0.60;0.60;;;;;;;0.41;68.29;101350.34;683607;28;22389;-66
2022/01/07 01:27:54;;;;;;;0.60;0.60;;;;;;;0.41;68.61;101353.03;682397;28;67652;-67
2022/01/07 01:28:15;;;;;;;0.60;0.60;;;;;;;0.42;68.29;101354.69;685309;28;21379;-67
2022/01/07 01:28:37;;;;;;;0.60;0.60;;;;;;;0.40;68.40;101353.97;685720;28;22409;-68
2022/01/07 01:28:58;;;;;;;0.50;0.50;;;;;;;0.40;68.39;101358.44;685294;28;44296;-68
2022/01/07 01:29:22;;;;;;;0.70;0.70;;;;;;;0.36;68.35;101347.13;685038;28;22428;-67
2022/01/07 01:29:43;;;;;;;0.70;0.70;;;;;;;0.36;68.39;101355.09;684748;28;68443;-67
2022/01/07 01:30:07;;;;;;;0.70;0.70;;;;;;;0.35;68.23;101353.41;686197;28;21620;-66
2022/01/07 01:30:31;;;;;;;0.60;0.60;;;;;;;0.33;68.29;101353.50;683198;28;115545;-67
2022/01/07 01:30:52;;;;;;;0.60;0.60;;;;;;;0.33;68.37;101350.00;683788;28;90831;-67
2022/01/07 01:31:16;;;;;;;0.60;0.60;;;;;;;0.32;68.36;101350.94;685052;28;22437;-66
2022/01/07 01:31:37;;;;;;;0.60;0.60;;;;;;;0.29;68.38;101344.00;683276;28;90402;-67
2022/01/07 01:31:58;;;;;;;0.55;0.55;;;;;;;0.30;68.30;101351.03;686433;28;23506;-67
2022/01/07 01:32:20;;;;;;;0.70;0.70;;;;;;;0.30;68.38;101343.06;685692;28;22377;-67
2022/01/07 01:32:44;;;;;;;0.75;0.75;;;;;;;0.33;68.38;101350.00;685149;28;46205;-67
2022/01/07 01:33:05;;;;;;;0.70;0.70;;;;;;;0.33;68.54;101348.19;683892;28;92334;-68
2022/01/07 01:33:26;;;;;;;0.70;0.70;;;;;;;0.32;68.35;101349.13;686822;28;1016;-66
2022/01/07 01:33:48;;;;;;;0.68;0.68;;;;;;;0.36;68.63;101344.44;685900;28;18615;-67
2022/01/07 01:34:10;;;;;;;0.60;0.60;;;;;;;0.36;68.60;101352.44;685772;28;23548;-67
2022/01/07 01:34:31;;;;;;;0.60;0.60;;;;;;;0.39;68.64;101351.41;685111;28;45449;-68
2022/01/07 01:34:52;;;;;;;0.50;0.50;;;;;;;0.40;68.53;101358.44;685634;28;46434;-67
2022/01/07 01:35:15;;;;;;;0.70;0.70;;;;;;;0.39;68.39;101351.41;685706;28;22394;-67
2022/01/07 01:35:37;;;;;;;0.70;0.70;;;;;;;0.34;68.42;101344.56;685454;28;46285;-67
2022/01/07 01:35:58;;;;;;;0.70;0.70;;;;;;;0.35;68.41;101359.56;685064;28;69366;-67
2022/01/07 01:36:19;;;;;;;0.70;0.70;;;;;;;0.33;68.48;101356.16;685587;28;22504;-66
2022/01/07 01:36:40;;;;;;;0.60;0.60;;;;;;;0.33;68.37;101356.16;684895;28;22473;-67
2022/01/07 01:37:03;;;;;;;0.60;0.60;;;;;;;0.33;68.32;101350.84;687172;28;1054;-67
2022/01/07 01:37:25;;;;;;;0.60;0.60;;;;;;;0.33;68.25;101352.66;684714;28;47343;-69
2022/01/07 01:37:47;;;;;;;0.52;0.52;;;;;;;0.30;68.42;101353.69;684289;28;45255;-66
2022/01/07 01:38:08;;;;;;;0.70;0.70;;;;;;;0.28;68.43;101352.06;685431;28;46395;-67
2022/01/07 01:38:30;;;;;;;0.70;0.70;;;;;;;0.28;68.50;101346.75;686009;28;23489;-67
2022/01/07 01:38:53;;;;;;;0.70;0.70;;;;;;;0.25;68.40;101342.50;687669;28;47455;-67
2022/01/07 01:39:14;;;;;;;0.60;0.60;;;;;;;0.25;68.41;101346.94;687025;28;45164;-67
2022/01/07 01:39:35;;;;;;;0.70;0.70;;;;;;;0.24;68.57;101348.75;687651;28;46292;-66
2022/01/07 01:39:56;;;;;;;0.60;0.60;;;;;;;0.23;68.50;101344.38;688605;28;22405;-66
2022/01/07 01:40:19;;;;;;;0.60;0.60;;;;;;;0.22;68.63;101344.47;688105;28;21537;-66
2022/01/07 01:40:41;;;;;;;0.52;0.52;;;;;;;0.22;68.71;101349.78;686378;28;69582;-67
2022/01/07 01:41:03;;;;;;;0.60;0.60;;;;;;;0.21;68.68;101342.78;688278;28;21951;-67
2022/01/07 01:41:25;;;;;;;0.80;0.80;;;;;;;0.19;68.54;101337.56;684668;28;46611;-68
2022/01/07 01:41:46;;;;;;;0.70;0.70;;;;;;;0.20;68.76;101346.38;683934;28;46327;-67
2022/01/07 01:42:08;;;;;;;0.60;0.60;;;;;;;0.18;68.79;101346.47;686125;28;22484;-68
2022/01/07 01:42:30;;;;;;;0.60;0.60;;;;;;;0.18;68.84;101346.47;685078;28;46189;-68
2022/01/07 01:42:52;;;;;;;0.60;0.60;;;;;;;0.18;68.87;101344.66;684124;28;45280;-68
2022/01/07 01:43:13;;;;;;;0.60;0.60;;;;;;;0.16;68.85;101343.91;683095;28;46317;-68
2022/01/07 01:43:34;;;;;;;0.60;0.60;;;;;;;0.15;68.90;101333.38;686056;28;22479;-67